createdAt,value
2017-11-09T00:01:02.601Z,34.37
2017-11-09T00:03:30.198Z,32.90
2017-11-09T00:06:03.258Z,33.67
2017-11-09T00:08:30.867Z,35.67
2017-11-09T00:10:58.438Z,32.50
2017-11-09T00:13:26.916Z,36.33
2017-11-09T00:15:54.525Z,32.53
2017-11-09T00:18:22.128Z,35.20
2017-11-09T00:20:49.720Z,36.80
2017-11-09T00:23:17.338Z,35.20
2017-11-09T00:25:44.967Z,35.33
2017-11-09T00:28:12.539Z,35.07
2017-11-09T00:30:40.121Z,30.60
2017-11-09T00:33:07.691Z,34.40
2017-11-09T00:35:35.255Z,33.90
2017-11-09T00:38:02.831Z,34.87
2017-11-09T00:40:30.436Z,36.23
2017-11-09T00:42:58.014Z,33.87
2017-11-09T00:45:25.590Z,36.30
2017-11-09T00:47:53.154Z,32.47
2017-11-09T00:50:20.731Z,33.60
2017-11-09T00:52:48.337Z,34.53
2017-11-09T00:55:15.905Z,35.47
2017-11-09T00:57:43.483Z,31.70
2017-11-09T01:00:11.094Z,34.77
2017-11-09T01:02:38.667Z,33.27
2017-11-09T01:05:06.234Z,32.67
2017-11-09T01:07:33.806Z,33.70
2017-11-09T01:10:01.410Z,32.37
2017-11-09T01:12:28.985Z,35.73
2017-11-09T01:14:56.550Z,32.77
2017-11-09T01:17:24.165Z,32.23
2017-11-09T01:19:51.736Z,33.60
2017-11-09T01:22:19.308Z,33.70
2017-11-09T01:24:46.878Z,33.87
2017-11-09T01:27:14.454Z,31.30
2017-11-09T01:29:42.019Z,33.17
2017-11-09T01:32:09.586Z,30.23
2017-11-09T01:34:37.164Z,32.17
2017-11-09T01:37:04.771Z,31.43
2017-11-09T01:39:32.327Z,31.20
2017-11-09T01:41:59.894Z,30.97
2017-11-09T01:44:27.465Z,33.93
2017-11-09T01:46:55.042Z,34.10
2017-11-09T01:49:22.650Z,30.10
2017-11-09T01:51:50.271Z,32.43
2017-11-09T01:54:17.830Z,34.07
2017-11-09T01:56:45.398Z,33.03
2017-11-09T01:59:12.964Z,35.20
2017-11-09T02:01:40.652Z,32.97
2017-11-09T02:04:08.234Z,32.27
2017-11-09T02:06:35.880Z,33.10
2017-11-09T02:09:03.457Z,35.43
2017-11-09T02:11:31.031Z,33.93
2017-11-09T02:13:58.632Z,33.20
2017-11-09T02:16:26.208Z,34.40
2017-11-09T02:18:53.778Z,34.53
2017-11-09T02:21:21.347Z,36.63
2017-11-09T02:23:48.968Z,36.63
2017-11-09T02:26:16.578Z,34.83
2017-11-09T02:28:44.143Z,32.53
2017-11-09T02:31:11.706Z,34.80
2017-11-09T02:33:39.272Z,36.03
2017-11-09T02:36:06.834Z,34.27
2017-11-09T02:38:34.456Z,33.47
2017-11-09T02:41:02.024Z,36.87
2017-11-09T02:43:29.592Z,34.93
2017-11-09T02:45:57.168Z,35.10
2017-11-09T02:48:24.731Z,35.00
2017-11-09T02:50:52.329Z,37.83
2017-11-09T02:53:19.901Z,34.17
2017-11-09T02:55:48.196Z,38.27
2017-11-09T02:58:16.527Z,36.47
2017-11-09T03:00:44.875Z,37.07
2017-11-09T03:03:12.440Z,36.70
2017-11-09T03:05:40.934Z,39.37
2017-11-09T03:08:08.547Z,37.47
2017-11-09T03:10:36.114Z,36.60
2017-11-09T03:13:03.673Z,38.93
2017-11-09T03:15:31.235Z,37.60
2017-11-09T03:17:59.571Z,38.10
2017-11-09T03:20:27.166Z,35.30
2017-11-09T03:22:54.738Z,38.63
2017-11-09T03:25:23.200Z,35.90
2017-11-09T03:27:50.768Z,37.47
2017-11-09T03:30:19.307Z,35.10
2017-11-09T03:32:46.895Z,36.37
2017-11-09T03:35:15.268Z,36.03
2017-11-09T03:37:42.853Z,38.83
2017-11-09T03:40:10.420Z,37.73
2017-11-09T03:42:38.021Z,36.60
2017-11-09T03:45:05.590Z,38.27
2017-11-09T03:47:33.154Z,34.87
2017-11-09T03:50:01.423Z,36.23
2017-11-09T03:52:29.011Z,39.03
2017-11-09T03:54:56.574Z,37.60
2017-11-09T03:57:24.145Z,35.67
2017-11-09T03:59:51.758Z,37.30
2017-11-09T04:02:19.318Z,37.83
2017-11-09T04:04:46.885Z,35.63
2017-11-09T04:07:19.121Z,35.37
2017-11-09T04:09:47.616Z,35.23
2017-11-09T04:12:15.183Z,37.20
2017-11-09T04:14:42.787Z,40.33
2017-11-09T04:17:10.363Z,40.13
2017-11-09T04:19:37.929Z,35.80
2017-11-09T04:22:05.494Z,37.00
2017-11-09T04:24:33.059Z,38.10
2017-11-09T04:27:00.680Z,37.80
2017-11-09T04:29:28.257Z,40.17
2017-11-09T04:31:56.621Z,37.93
2017-11-09T04:34:24.188Z,38.50
2017-11-09T04:36:51.757Z,39.93
2017-11-09T04:39:19.329Z,39.30
2017-11-09T04:41:46.898Z,36.40
2017-11-09T04:44:15.392Z,37.33
2017-11-09T04:46:42.955Z,39.93
2017-11-09T04:49:11.510Z,38.07
2017-11-09T04:51:39.081Z,36.03
2017-11-09T04:54:06.657Z,37.93
2017-11-09T04:56:35.124Z,39.10
2017-11-09T04:59:03.615Z,37.60
2017-11-09T05:01:31.214Z,40.87
2017-11-09T05:03:58.788Z,40.70
2017-11-09T05:06:27.215Z,38.70
2017-11-09T05:08:54.801Z,38.90
2017-11-09T05:11:22.410Z,40.70
2017-11-09T05:13:50.923Z,38.93
2017-11-09T05:16:19.311Z,39.13
2017-11-09T05:18:47.758Z,40.53
2017-11-09T05:21:16.135Z,41.23
2017-11-09T05:23:43.706Z,38.87
2017-11-09T05:26:12.203Z,38.50
2017-11-09T05:28:39.781Z,37.50
2017-11-09T05:31:08.265Z,35.70
2017-11-09T05:33:35.910Z,37.60
2017-11-09T05:36:04.327Z,37.90
2017-11-09T05:38:32.671Z,41.07
2017-11-09T05:41:01.007Z,39.87
2017-11-09T05:43:28.571Z,39.63
2017-11-09T05:45:56.159Z,42.37
2017-11-09T05:48:23.778Z,44.40
2017-11-09T05:50:51.397Z,49.17
2017-11-09T05:53:18.971Z,47.47
2017-11-09T05:55:46.582Z,44.73
2017-11-09T05:58:14.151Z,42.33
2017-11-09T06:00:41.719Z,40.60
2017-11-09T06:03:09.295Z,39.10
2017-11-09T06:05:36.871Z,42.07
2017-11-09T06:08:04.443Z,40.43
2017-11-09T06:10:32.013Z,40.70
2017-11-09T06:13:00.318Z,41.10
2017-11-09T06:15:27.900Z,39.67
2017-11-09T06:17:56.359Z,38.77
2017-11-09T06:20:24.791Z,42.63
2017-11-09T06:22:53.163Z,38.37
2017-11-09T06:25:20.727Z,36.13
2017-11-09T06:27:49.002Z,37.93
2017-11-09T06:30:17.261Z,38.10
2017-11-09T06:32:44.840Z,38.77
2017-11-09T06:35:12.441Z,39.60
2017-11-09T06:37:40.108Z,38.77
2017-11-09T06:40:08.468Z,38.53
2017-11-09T06:42:36.043Z,38.97
2017-11-09T06:45:03.706Z,40.63
2017-11-09T06:47:31.267Z,38.80
2017-11-09T06:49:59.366Z,41.53
2017-11-09T06:52:26.967Z,41.20
2017-11-09T06:54:55.455Z,42.00
2017-11-09T06:57:23.065Z,43.63
2017-11-09T06:59:50.643Z,46.30
2017-11-09T07:02:19.111Z,38.57
2017-11-09T07:04:46.676Z,41.17
2017-11-09T07:07:14.247Z,38.90
2017-11-09T07:09:41.834Z,41.00
2017-11-09T07:12:09.396Z,39.13
2017-11-09T07:14:37.062Z,44.83
2017-11-09T07:17:04.634Z,43.47
2017-11-09T07:19:32.202Z,46.77
2017-11-09T07:21:59.778Z,41.27
2017-11-09T07:24:27.358Z,41.40
2017-11-09T07:26:55.635Z,39.47
2017-11-09T07:29:23.203Z,39.03
2017-11-09T07:31:50.810Z,38.77
2017-11-09T07:34:18.375Z,38.70
2017-11-09T07:36:46.737Z,37.50
2017-11-09T07:39:14.310Z,37.47
2017-11-09T07:41:42.794Z,37.90
2017-11-09T07:44:10.367Z,38.80
2017-11-09T07:46:37.935Z,36.33
2017-11-09T07:51:27.555Z,34.60
2017-11-09T07:53:55.124Z,37.60
2017-11-09T07:56:22.696Z,35.80
2017-11-09T07:58:50.278Z,37.30
2017-11-09T08:01:17.844Z,37.27
2017-11-09T08:03:45.459Z,32.70
2017-11-09T08:06:13.027Z,32.43
2017-11-09T08:08:40.594Z,31.60
2017-11-09T08:11:08.163Z,35.40
2017-11-09T08:13:35.729Z,34.47
2017-11-09T08:16:03.340Z,31.87
2017-11-09T08:18:31.278Z,34.03
2017-11-09T08:20:58.879Z,34.30
2017-11-09T08:23:26.453Z,31.67
2017-11-09T08:25:55.970Z,33.00
2017-11-09T08:28:27.367Z,33.50
2017-11-09T08:30:56.178Z,33.60
2017-11-09T08:33:24.934Z,32.70
2017-11-09T08:35:53.431Z,33.90
2017-11-09T08:38:21.040Z,34.37
2017-11-09T08:40:48.614Z,32.27
2017-11-09T08:43:16.947Z,33.53
2017-11-09T08:45:44.514Z,34.00
2017-11-09T08:48:12.888Z,33.80
2017-11-09T08:50:40.454Z,34.30
2017-11-09T08:53:08.835Z,35.43
2017-11-09T08:55:37.183Z,35.17
2017-11-09T08:58:04.759Z,38.90
2017-11-09T09:00:32.335Z,33.90
2017-11-09T09:03:00.701Z,37.30
2017-11-09T09:05:28.311Z,34.77
2017-11-09T09:07:55.884Z,34.37
2017-11-09T09:10:24.367Z,33.33
2017-11-09T09:12:52.712Z,35.33
2017-11-09T09:15:20.311Z,32.57
2017-11-09T09:17:48.734Z,33.40
2017-11-09T09:20:16.439Z,34.20
2017-11-09T09:23:02.619Z,31.97
2017-11-09T09:25:36.542Z,34.63
2017-11-09T09:28:04.927Z,31.37
2017-11-09T09:30:33.281Z,34.60
2017-11-09T09:33:04.702Z,32.83
2017-11-09T09:35:32.994Z,34.63
2017-11-09T09:38:01.755Z,33.00
2017-11-09T09:40:30.498Z,33.83
2017-11-09T09:42:58.997Z,34.00
2017-11-09T09:45:26.566Z,32.13
2017-11-09T09:47:54.132Z,35.43
2017-11-09T09:50:21.730Z,31.53
2017-11-09T09:52:50.213Z,32.47
2017-11-09T09:55:18.516Z,34.27
2017-11-09T09:57:47.006Z,30.33
2017-11-09T10:00:14.627Z,31.57
2017-11-09T10:02:42.883Z,30.37
2017-11-09T10:05:11.254Z,29.90
2017-11-09T10:07:38.833Z,26.77
2017-11-09T10:10:07.191Z,25.23
2017-11-09T10:12:34.798Z,30.40
2017-11-09T10:15:03.011Z,30.13
2017-11-09T10:17:31.492Z,29.17
2017-11-09T10:19:59.891Z,31.97
2017-11-09T10:22:27.464Z,31.20
2017-11-09T10:24:55.810Z,32.00
2017-11-09T10:27:23.380Z,29.50
2017-11-09T10:29:51.885Z,30.57
2017-11-09T10:32:19.449Z,29.53
2017-11-09T10:34:48.001Z,27.80
2017-11-09T10:37:15.616Z,30.23
2017-11-09T10:39:43.191Z,30.20
2017-11-09T10:42:10.807Z,31.27
2017-11-09T10:44:39.076Z,28.50
2017-11-09T10:47:07.463Z,32.10
2017-11-09T10:49:35.843Z,30.37
2017-11-09T10:52:04.187Z,32.27
2017-11-09T10:54:32.536Z,33.60
2017-11-09T10:57:00.160Z,34.90
2017-11-09T11:02:08.605Z,37.00
2017-11-09T11:04:36.971Z,33.90
2017-11-09T11:07:05.247Z,33.60
2017-11-09T11:09:33.594Z,35.03
2017-11-09T11:12:01.991Z,32.70
2017-11-09T11:14:30.718Z,36.87
2017-11-09T11:16:58.293Z,34.67
2017-11-09T11:19:25.860Z,36.97
2017-11-09T11:21:53.463Z,35.77
2017-11-09T11:24:21.033Z,37.60
2017-11-09T11:26:48.600Z,37.00
2017-11-09T11:29:16.165Z,37.47
2017-11-09T11:31:43.748Z,40.30
2017-11-09T11:34:11.363Z,41.27
2017-11-09T11:36:38.931Z,42.10
2017-11-09T11:39:06.503Z,40.27
2017-11-09T11:41:34.081Z,43.90
2017-11-09T11:44:01.652Z,41.07
2017-11-09T11:46:29.218Z,44.63
2017-11-09T11:48:56.790Z,42.43
2017-11-09T11:51:24.358Z,36.70
2017-11-09T11:53:52.658Z,36.03
2017-11-09T11:56:20.226Z,33.30
2017-11-09T11:58:48.706Z,35.87
2017-11-09T12:01:16.283Z,37.40
2017-11-09T12:03:46.679Z,37.27
2017-11-09T12:06:14.263Z,39.70
2017-11-09T12:08:41.835Z,39.37
2017-11-09T12:11:09.408Z,40.10
2017-11-09T12:13:38.005Z,41.73
2017-11-09T12:16:05.575Z,38.67
2017-11-09T12:18:33.142Z,37.03
2017-11-09T12:21:00.749Z,38.87
2017-11-09T12:23:29.229Z,32.27
2017-11-09T12:25:56.790Z,31.23
2017-11-09T12:28:26.166Z,31.50
2017-11-09T12:30:53.740Z,31.53
2017-11-09T12:33:21.308Z,27.40
2017-11-09T12:35:48.878Z,31.43
2017-11-09T12:38:16.438Z,30.17
2017-11-09T12:40:44.000Z,30.50
2017-11-09T12:43:11.583Z,32.07
2017-11-09T12:45:39.167Z,32.77
2017-11-09T12:48:06.735Z,31.70
2017-11-09T12:50:34.353Z,33.50
2017-11-09T12:53:01.919Z,33.67
2017-11-09T12:55:29.503Z,32.30
2017-11-09T12:57:57.935Z,33.50
2017-11-09T13:00:25.507Z,33.50
2017-11-09T13:02:53.108Z,33.67
2017-11-09T13:05:20.671Z,33.00
2017-11-09T13:07:49.099Z,36.43
2017-11-09T13:10:17.555Z,34.87
2017-11-09T13:12:45.119Z,33.40
2017-11-09T13:15:13.596Z,32.43
2017-11-09T13:17:41.946Z,34.60
2017-11-09T13:20:09.523Z,35.50
2017-11-09T13:22:37.102Z,33.13
2017-11-09T13:25:05.459Z,38.30
2017-11-09T13:27:33.042Z,35.33
2017-11-09T13:30:01.571Z,34.33
2017-11-09T13:32:29.142Z,32.63
2017-11-09T13:34:57.623Z,38.20
2017-11-09T13:37:25.187Z,34.00
2017-11-09T13:39:53.653Z,37.47
2017-11-09T13:42:22.212Z,39.27
2017-11-09T13:44:50.713Z,34.07
2017-11-09T13:47:18.289Z,39.00
2017-11-09T13:49:46.695Z,37.77
2017-11-09T13:52:14.262Z,39.07
2017-11-09T13:54:42.802Z,38.87
2017-11-09T13:57:11.158Z,39.17
2017-11-09T13:59:38.903Z,32.53
2017-11-09T14:02:07.258Z,37.87
2017-11-09T14:04:34.831Z,37.03
2017-11-09T14:07:03.346Z,37.00
2017-11-09T14:09:30.944Z,37.13
2017-11-09T14:11:59.366Z,39.10
2017-11-09T14:14:26.983Z,38.20
2017-11-09T14:16:55.295Z,38.97
2017-11-09T14:19:22.874Z,40.97
2017-11-09T14:21:51.347Z,40.30
2017-11-09T14:24:18.965Z,37.07
2017-11-09T14:26:46.532Z,39.50
2017-11-09T14:29:14.106Z,38.93
2017-11-09T14:31:42.477Z,41.30
2017-11-09T14:34:10.857Z,36.77
2017-11-09T14:36:39.386Z,35.90
2017-11-09T14:39:07.813Z,40.07
2017-11-09T14:41:36.170Z,42.03
2017-11-09T14:44:04.659Z,38.30
2017-11-09T14:46:34.964Z,39.40
2017-11-09T14:49:02.534Z,34.80
2017-11-09T14:51:30.107Z,37.77
2017-11-09T14:53:57.681Z,36.10
2017-11-09T14:56:25.255Z,39.27
2017-11-09T14:58:52.839Z,37.57
2017-11-09T15:01:20.411Z,39.47
2017-11-09T15:03:48.033Z,39.97
2017-11-09T15:06:15.609Z,40.50
2017-11-09T15:08:43.979Z,36.50
2017-11-09T15:11:11.562Z,38.87
2017-11-09T15:13:39.841Z,41.67
2017-11-09T15:16:07.419Z,39.13
2017-11-09T15:18:35.063Z,42.30
2017-11-09T15:23:29.154Z,42.47
2017-11-09T15:25:56.728Z,39.43
2017-11-09T15:28:24.328Z,41.87
2017-11-09T15:30:51.906Z,41.50
2017-11-09T15:33:19.481Z,41.00
2017-11-09T15:35:53.831Z,40.93
2017-11-09T15:38:22.359Z,39.50
2017-11-09T15:40:50.826Z,37.90
2017-11-09T15:43:18.452Z,41.37
2017-11-09T15:45:46.922Z,42.20
2017-11-09T15:48:15.202Z,39.10
2017-11-09T15:50:43.572Z,40.40
2017-11-09T15:53:11.140Z,37.93
2017-11-09T15:55:38.708Z,38.80
2017-11-09T15:58:06.275Z,41.90
2017-11-09T16:00:34.717Z,42.40
2017-11-09T16:03:02.288Z,37.80
2017-11-09T16:05:29.875Z,38.60
2017-11-09T16:08:12.986Z,41.00
2017-11-09T16:10:43.767Z,44.30
2017-11-09T16:13:11.395Z,42.60
2017-11-09T16:15:39.744Z,41.77
2017-11-09T16:18:07.339Z,39.13
2017-11-09T16:20:38.324Z,40.10
2017-11-09T16:23:06.686Z,37.30
2017-11-09T16:25:34.302Z,39.23
2017-11-09T16:28:04.760Z,40.20
2017-11-09T16:30:33.129Z,43.73
2017-11-09T16:33:01.516Z,38.10
2017-11-09T16:35:29.894Z,41.80
2017-11-09T16:37:57.504Z,40.83
2017-11-09T16:40:25.119Z,40.87
2017-11-09T16:42:52.690Z,38.90
2017-11-09T16:45:20.270Z,44.70
2017-11-09T16:47:47.843Z,37.73
2017-11-09T16:50:15.531Z,41.17
2017-11-09T16:52:45.445Z,43.70
2017-11-09T16:55:13.027Z,45.07
2017-11-09T16:57:42.436Z,44.67
2017-11-09T17:00:10.016Z,43.70
2017-11-09T17:02:38.314Z,51.42
2017-11-09T17:05:05.930Z,48.73
2017-11-09T17:07:34.115Z,48.40
2017-11-09T17:10:01.719Z,46.63
2017-11-09T17:12:30.066Z,45.30
2017-11-09T17:15:02.325Z,50.37
2017-11-09T17:17:30.675Z,48.00
2017-11-09T17:19:58.290Z,44.97
2017-11-09T17:22:26.757Z,51.03
2017-11-09T17:24:55.103Z,49.43
2017-11-09T17:27:22.682Z,51.07
2017-11-09T17:29:51.059Z,49.43
2017-11-09T17:32:19.470Z,44.57
2017-11-09T17:34:47.039Z,50.90
2017-11-09T17:37:15.315Z,48.80
2017-11-09T17:39:42.900Z,50.87
2017-11-09T17:42:16.211Z,50.73
2017-11-09T17:44:43.791Z,46.30
2017-11-09T17:47:11.363Z,52.87
2017-11-09T17:49:38.927Z,51.90
2017-11-09T17:52:09.482Z,50.00
2017-11-09T17:54:37.060Z,55.50
2017-11-09T17:57:04.635Z,52.17
2017-11-09T18:02:29.194Z,53.00
2017-11-09T18:04:56.813Z,48.30
2017-11-09T18:07:24.428Z,49.60
2017-11-09T18:09:52.013Z,47.80
2017-11-09T18:12:20.420Z,51.50
2017-11-09T18:14:48.935Z,49.47
2017-11-09T18:17:16.685Z,51.77
2017-11-09T18:19:45.198Z,48.77
2017-11-09T18:22:12.761Z,49.20
2017-11-09T18:24:40.358Z,51.27
2017-11-09T18:27:08.737Z,48.00
2017-11-09T18:29:36.569Z,56.20
2017-11-09T18:32:04.185Z,50.20
2017-11-09T18:34:32.694Z,52.20
2017-11-09T18:37:01.008Z,51.50
2017-11-09T18:39:28.631Z,54.77
2017-11-09T18:41:56.938Z,49.33
2017-11-09T18:44:24.623Z,53.90
2017-11-09T18:46:52.244Z,53.90
2017-11-09T18:49:19.823Z,50.70
2017-11-09T18:51:47.400Z,48.97
2017-11-09T18:54:15.031Z,54.53
2017-11-09T18:56:42.722Z,50.83
2017-11-09T18:59:17.586Z,52.67
2017-11-09T19:01:45.154Z,55.70
2017-11-09T19:04:12.887Z,51.93
2017-11-09T19:06:40.457Z,53.07
2017-11-09T19:09:08.962Z,54.87
2017-11-09T19:11:36.539Z,52.53
2017-11-09T19:14:04.934Z,52.50
2017-11-09T19:16:33.509Z,51.53
2017-11-09T19:19:01.907Z,51.97
2017-11-09T19:21:30.304Z,54.53
2017-11-09T19:23:57.902Z,49.40
2017-11-09T19:26:25.736Z,53.13
2017-11-09T19:28:54.222Z,51.70
2017-11-09T19:31:22.716Z,50.73
2017-11-09T19:33:51.142Z,51.77
2017-11-09T19:36:19.571Z,54.73
2017-11-09T19:38:48.172Z,52.83
2017-11-09T19:41:15.872Z,52.57
2017-11-09T19:43:43.471Z,51.97
2017-11-09T19:46:11.056Z,50.50
2017-11-09T19:48:38.644Z,52.97
2017-11-09T19:51:06.269Z,53.17
2017-11-09T19:53:34.899Z,50.03
2017-11-09T19:56:03.404Z,52.07
2017-11-09T19:58:32.857Z,53.63
2017-11-09T20:01:00.563Z,53.03
2017-11-09T20:03:28.151Z,51.13
2017-11-09T20:05:56.664Z,52.40
2017-11-09T20:08:25.051Z,51.43
2017-11-09T20:10:54.077Z,47.57
2017-11-09T20:13:21.656Z,48.70
2017-11-09T20:15:49.341Z,52.50
2017-11-09T20:18:17.838Z,51.07
2017-11-09T20:20:45.748Z,47.40
2017-11-09T20:23:13.317Z,49.97
2017-11-09T20:25:40.924Z,48.00
2017-11-09T20:28:08.507Z,50.03
2017-11-09T20:30:36.089Z,49.73
2017-11-09T20:33:04.594Z,48.77
2017-11-09T20:35:32.164Z,48.07
2017-11-09T20:38:00.651Z,47.50
2017-11-09T20:40:28.504Z,46.63
2017-11-09T20:42:56.082Z,50.07
2017-11-09T20:45:23.663Z,49.67
2017-11-09T20:47:52.141Z,46.30
2017-11-09T20:50:21.495Z,48.37
2017-11-09T20:52:50.079Z,44.87
2017-11-09T20:55:17.774Z,46.10
2017-11-09T20:57:45.423Z,47.83
2017-11-09T21:00:13.120Z,45.37
2017-11-09T21:02:41.394Z,46.77
2017-11-09T21:05:09.119Z,43.67
2017-11-09T21:07:36.707Z,43.27
2017-11-09T21:10:04.287Z,41.00
2017-11-09T21:12:31.903Z,44.70
2017-11-09T21:15:00.409Z,44.50
2017-11-09T21:17:28.452Z,45.70
2017-11-09T21:19:56.127Z,46.10
2017-11-09T21:22:23.695Z,44.03
2017-11-09T21:24:51.315Z,41.40
2017-11-09T21:27:20.082Z,43.40
2017-11-09T21:29:49.783Z,41.33
2017-11-09T21:32:17.706Z,39.80
2017-11-09T21:34:45.772Z,36.77
2017-11-09T21:37:13.344Z,40.90
2017-11-09T21:39:41.858Z,39.63
2017-11-09T21:42:10.399Z,41.17
2017-11-09T21:44:38.584Z,38.07
2017-11-09T21:47:06.173Z,38.17
2017-11-09T21:49:33.738Z,38.67
2017-11-09T21:52:01.317Z,38.73
2017-11-09T21:54:29.243Z,42.27
2017-11-09T21:56:57.612Z,40.03
2017-11-09T21:59:25.989Z,37.03
2017-11-09T22:01:53.776Z,39.37
2017-11-09T22:04:21.363Z,42.17
2017-11-09T22:06:48.981Z,41.33
2017-11-09T22:09:16.555Z,40.57
2017-11-09T22:11:44.222Z,42.00
2017-11-09T22:14:11.807Z,40.70
2017-11-09T22:16:39.495Z,40.23
2017-11-09T22:19:07.169Z,38.83
2017-11-09T22:21:34.777Z,39.50
2017-11-09T22:24:03.288Z,38.50
2017-11-09T22:26:31.591Z,41.43
2017-11-09T22:28:59.194Z,37.27
2017-11-09T22:31:26.846Z,43.13
2017-11-09T22:33:54.770Z,40.63
2017-11-09T22:36:22.348Z,37.90
2017-11-09T22:38:49.953Z,42.97
2017-11-09T22:41:17.752Z,40.20
2017-11-09T22:43:45.373Z,38.00
2017-11-09T22:46:12.942Z,41.07
2017-11-09T22:48:40.551Z,39.70
2017-11-09T22:51:08.948Z,40.20
2017-11-09T22:53:37.240Z,41.47
2017-11-09T22:56:04.850Z,36.50
2017-11-09T22:58:32.421Z,37.50
2017-11-09T23:01:00.031Z,39.50
2017-11-09T23:03:28.296Z,36.37
2017-11-09T23:05:55.911Z,38.87
2017-11-09T23:08:24.387Z,38.87
2017-11-09T23:10:51.966Z,37.60
2017-11-09T23:13:19.578Z,42.62
2017-11-09T23:15:47.348Z,39.60
2017-11-09T23:18:14.916Z,37.63
2017-11-09T23:20:42.475Z,38.30
2017-11-09T23:23:10.082Z,35.70
2017-11-09T23:25:37.678Z,37.97
2017-11-09T23:28:05.252Z,38.00
2017-11-09T23:30:32.827Z,36.20
2017-11-09T23:33:00.398Z,37.67
2017-11-09T23:35:28.030Z,35.70
2017-11-09T23:37:55.607Z,38.53
2017-11-09T23:40:23.217Z,37.87
2017-11-09T23:42:50.782Z,36.33
2017-11-09T23:45:24.686Z,37.77
2017-11-09T23:47:52.253Z,36.53
2017-11-09T23:50:19.838Z,37.60
2017-11-09T23:52:48.317Z,33.37
2017-11-09T23:55:15.888Z,37.70
2017-11-09T23:57:43.455Z,35.60
